Time;durP1;ratioP1;P1;durP2;ratioP2;P2;SDS_P1;SDS_P2;PMS_P1;PMS_P2;Temp;Humidity;BMP_temperature;BMP_pressure;BME280_temperature;BME280_humidity;BME280_pressure;Samples;Min_cycle;Max_cycle;Signal;HPM_P1;HPM_P2
2023/01/01 10:38:52;;;;;;;6.43;5.93;;;19.80;62.30;;;;;;5076110;27;21172;-69
2023/01/01 10:52:57;;;;;;;4.60;3.13;;;22.40;67.70;;;;;;5036026;28;20674;-54
2023/01/01 10:58:26;;;;;;;4.53;3.10;;;22.10;61.80;;;;;;5106761;22;20252;-36
2023/01/01 11:01:00;;;;;;;4.50;3.27;;;21.80;61.80;;;;;;5038458;28;20436;-36
2023/01/01 11:03:25;;;;;;;4.80;3.23;;;21.70;63.50;;;;;;5038697;28;20447;-37
2023/01/01 11:06:16;;;;;;;5.77;3.23;;;21.70;63.80;;;;;;5038860;28;20971;-36
2023/01/01 11:08:51;;;;;;;4.57;3.60;;;21.60;64.20;;;;;;5044588;28;20264;-36
2023/01/01 11:11:28;;;;;;;5.53;3.73;;;21.60;64.20;;;;;;5045380;28;20470;-35
2023/01/01 11:13:57;;;;;;;4.73;3.50;;;21.60;63.60;;;;;;5043604;28;20982;-36
2023/01/01 11:16:24;;;;;;;6.43;3.20;;;21.70;63.20;;;;;;5022857;28;20435;-36
2023/01/01 11:18:50;;;;;;;5.10;3.03;;;21.70;63.40;;;;;;5037296;28;20906;-41
2023/01/01 11:21:21;;;;;;;4.27;3.13;;;21.70;62.10;;;;;;5043003;28;20481;-35
2023/01/01 11:23:50;;;;;;;6.30;3.07;;;21.80;61.60;;;;;;5037210;28;20223;-36
2023/01/01 11:26:23;;;;;;;5.53;3.20;;;21.80;61.60;;;;;;5038095;28;20468;-36
2023/01/01 11:29:23;;;;;;;4.63;3.57;;;21.80;61.30;;;;;;5037342;28;20788;-35
2023/01/01 11:31:50;;;;;;;4.90;3.13;;;21.90;61.00;;;;;;5054991;28;20536;-36
2023/01/01 11:34:42;;;;;;;4.37;3.10;;;22.00;60.80;;;;;;5055100;28;20844;-37
2023/01/01 11:37:15;;;;;;;4.70;3.43;;;22.00;60.30;;;;;;5052687;28;20493;-36
2023/01/01 11:39:43;;;;;;;6.70;3.47;;;22.00;59.80;;;;;;5019304;28;20478;-37
2023/01/01 11:42:16;;;;;;;4.00;3.20;;;22.00;59.40;;;;;;5053296;28;20431;-37
2023/01/01 11:44:49;;;;;;;4.90;3.23;;;22.00;59.10;;;;;;5052543;28;20423;-36
2023/01/01 11:47:34;;;;;;;5.27;2.77;;;21.90;58.80;;;;;;5044773;28;20437;-35
2023/01/01 11:50:12;;;;;;;8.20;3.40;;;22.00;58.70;;;;;;5048953;28;20743;-36
2023/01/01 11:52:43;;;;;;;4.10;3.20;;;22.00;58.50;;;;;;5038305;28;20459;-35
2023/01/01 11:55:41;;;;;;;5.10;3.67;;;22.00;58.30;;;;;;5047746;28;20534;-36
2023/01/01 11:58:32;;;;;;;7.70;3.30;;;22.10;58.10;;;;;;5041644;28;20547;-36
2023/01/01 12:01:02;;;;;;;5.73;3.20;;;22.20;58.00;;;;;;5040645;28;20506;-36
2023/01/01 12:03:50;;;;;;;8.20;3.50;;;22.30;57.70;;;;;;5033739;28;20602;-36
2023/01/01 12:06:44;;;;;;;5.70;3.40;;;22.40;57.50;;;;;;5022997;28;20453;-37
2023/01/01 12:09:32;;;;;;;4.37;3.57;;;22.50;56.90;;;;;;5016802;28;20449;-38
2023/01/01 12:12:31;;;;;;;6.30;3.47;;;22.60;56.50;;;;;;5030045;28;20480;-37
2023/01/01 12:15:03;;;;;;;6.87;3.30;;;22.50;55.80;;;;;;5002080;28;20535;-36
2023/01/01 12:17:58;;;;;;;5.30;3.50;;;22.30;55.70;;;;;;5024987;28;20926;-37
2023/01/01 12:20:39;;;;;;;4.80;3.30;;;22.20;56.80;;;;;;5028269;28;20452;-36
2023/01/01 12:23:10;;;;;;;3.40;2.80;;;22.10;57.70;;;;;;5030397;28;20471;-37
2023/01/01 12:25:42;;;;;;;4.57;3.40;;;22.10;58.30;;;;;;5039810;28;20527;-36
2023/01/01 12:28:24;;;;;;;6.40;3.30;;;22.00;58.50;;;;;;5023648;28;20918;-35
2023/01/01 12:36:38;;;;;;;10.03;3.50;;;22.00;58.70;;;;;;4991074;28;20533;-59
2023/01/01 12:39:34;;;;;;;5.63;3.40;;;22.00;59.10;;;;;;4990088;28;20416;-57
2023/01/01 12:42:18;;;;;;;4.87;3.23;;;22.10;59.80;;;;;;4985061;28;20454;-51
2023/01/01 12:44:54;;;;;;;5.90;4.10;;;22.30;60.00;;;;;;5036736;28;20427;-54
2023/01/01 12:47:53;;;;;;;4.90;3.63;;;22.40;60.50;;;;;;5053882;28;20184;-54
2023/01/01 12:50:34;;;;;;;4.67;3.37;;;22.30;60.50;;;;;;5054488;28;20504;-53
2023/01/01 12:53:13;;;;;;;9.00;3.40;;;22.20;60.90;;;;;;5054217;28;20438;-53
2023/01/01 12:55:45;;;;;;;5.30;2.73;;;22.10;61.30;;;;;;5054022;28;20467;-56
2023/01/01 12:58:21;;;;;;;5.80;3.10;;;22.00;61.70;;;;;;5052928;28;20806;-51
2023/01/01 13:01:07;;;;;;;6.57;3.37;;;21.90;62.10;;;;;;5053794;28;20407;-51
2023/01/01 13:03:39;;;;;;;6.20;3.40;;;21.90;62.60;;;;;;5039857;28;20432;-53
2023/01/01 13:06:06;;;;;;;4.10;3.00;;;21.80;62.90;;;;;;5056361;28;20416;-54
2023/01/01 13:08:33;;;;;;;5.13;2.70;;;21.80;63.20;;;;;;5054988;28;20847;-55
2023/01/01 13:11:01;;;;;;;6.23;3.10;;;21.70;63.40;;;;;;5055317;28;20639;-53
2023/01/01 13:13:27;;;;;;;4.70;3.40;;;21.70;63.70;;;;;;5053984;28;20424;-53
2023/01/01 13:15:57;;;;;;;5.60;3.10;;;21.70;64.10;;;;;;5053314;28;20537;-52
2023/01/01 13:18:23;;;;;;;5.23;3.17;;;21.70;64.40;;;;;;5055314;28;20590;-56
2023/01/01 13:20:52;;;;;;;3.97;3.17;;;21.60;64.60;;;;;;5054614;28;20538;-54
2023/01/01 13:23:37;;;;;;;5.73;3.20;;;21.60;64.90;;;;;;5055394;28;21190;-54
2023/01/01 13:26:21;;;;;;;3.57;2.90;;;21.60;65.30;;;;;;5054441;28;20431;-52
2023/01/01 13:29:04;;;;;;;6.87;2.93;;;21.50;65.40;;;;;;5056201;28;20411;-53
2023/01/01 13:31:39;;;;;;;6.47;3.10;;;21.50;65.80;;;;;;5054840;28;20847;-54
2023/01/01 13:34:29;;;;;;;4.77;3.17;;;21.50;66.00;;;;;;5053852;28;20478;-49
2023/01/01 13:37:10;;;;;;;4.20;2.93;;;21.50;66.30;;;;;;5054059;28;20431;-52
2023/01/01 13:40:23;;;;;;;3.43;2.80;;;21.40;66.40;;;;;;5053347;28;20858;-49
2023/01/01 13:42:53;;;;;;;3.80;2.70;;;21.40;66.70;;;;;;5051865;28;20481;-54
2023/01/01 13:45:44;;;;;;;2.97;2.40;;;21.40;67.00;;;;;;5052223;28;20432;-50
2023/01/01 13:48:28;;;;;;;4.60;2.87;;;21.40;67.20;;;;;;5040946;28;20423;-53
2023/01/01 13:51:16;;;;;;;4.23;2.90;;;21.40;67.40;;;;;;5040359;28;20425;-52
2023/01/01 13:54:01;;;;;;;4.30;2.83;;;21.40;67.60;;;;;;5040015;28;20891;-52
2023/01/01 13:56:53;;;;;;;3.67;2.60;;;21.40;68.00;;;;;;5040226;28;20475;-52
2023/01/01 13:59:51;;;;;;;3.47;2.63;;;21.40;68.20;;;;;;5039931;28;20439;-51
2023/01/01 14:02:27;;;;;;;2.60;2.27;;;21.40;68.40;;;;;;5039533;28;20922;-48
2023/01/01 14:05:05;;;;;;;2.47;2.27;;;21.40;68.70;;;;;;5039657;28;20440;-50
2023/01/01 14:07:48;;;;;;;5.53;2.60;;;21.40;68.90;;;;;;5039287;28;20931;-50
2023/01/01 14:10:27;;;;;;;5.50;2.73;;;21.40;68.60;;;;;;5040843;28;20763;-51
2023/01/01 14:12:56;;;;;;;2.97;2.40;;;21.40;69.00;;;;;;5039458;28;20429;-51
2023/01/01 14:15:24;;;;;;;4.63;2.30;;;21.40;68.80;;;;;;5039307;28;20609;-48
2023/01/01 14:17:52;;;;;;;4.33;2.23;;;21.40;69.50;;;;;;5040980;28;20435;-49
2023/01/01 14:20:21;;;;;;;3.20;2.40;;;21.40;68.70;;;;;;5039980;28;20476;-49
2023/01/01 14:22:48;;;;;;;7.97;3.00;;;21.40;68.90;;;;;;5041435;28;20420;-50
2023/01/01 14:25:35;;;;;;;6.60;3.03;;;21.40;69.20;;;;;;5030893;28;20466;-54
2023/01/01 14:28:01;;;;;;;6.53;3.40;;;21.40;69.30;;;;;;5035258;28;20456;-48
2023/01/01 14:30:30;;;;;;;12.30;3.17;;;21.30;69.00;;;;;;5036511;28;20452;-54
2023/01/01 14:33:01;;;;;;;4.03;3.20;;;21.30;69.20;;;;;;5037391;28;20914;-54
2023/01/01 14:35:27;;;;;;;9.33;3.40;;;21.30;69.40;;;;;;5035927;28;20790;-48
2023/01/01 14:37:53;;;;;;;3.23;2.70;;;21.30;69.40;;;;;;5037696;28;20732;-47
2023/01/01 14:40:29;;;;;;;5.83;3.40;;;21.30;69.20;;;;;;5036397;28;20454;-50
2023/01/01 15:12:36;;;;;;;13.70;12.40;;;16.90;67.20;;;;;;4978140;28;20692;-52
2023/01/01 15:15:02;;;;;;;13.40;12.40;;;16.40;66.20;;;;;;4986124;28;20500;-51
2023/01/01 15:17:43;;;;;;;13.07;11.93;;;16.30;67.40;;;;;;4997018;28;20983;-48
2023/01/01 15:20:35;;;;;;;12.70;11.80;;;16.30;67.80;;;;;;4983468;28;20430;-54
2023/01/01 15:23:02;;;;;;;13.20;12.30;;;16.30;68.10;;;;;;4975417;28;20450;-48
2023/01/01 15:25:28;;;;;;;13.13;11.87;;;16.20;68.10;;;;;;4977265;28;20951;-49
2023/01/01 15:27:54;;;;;;;13.07;12.17;;;16.20;67.90;;;;;;4978234;28;21123;-50
2023/01/01 15:30:30;;;;;;;13.20;12.13;;;16.30;67.90;;;;;;4979492;28;20445;-51
2023/01/01 15:33:06;;;;;;;12.70;11.70;;;16.30;68.10;;;;;;4974962;28;20843;-48
2023/01/01 15:35:33;;;;;;;13.40;12.40;;;16.30;68.00;;;;;;4975689;28;20446;-48
2023/01/01 15:38:09;;;;;;;12.60;11.70;;;16.30;68.40;;;;;;4979828;28;20453;-51
2023/01/01 15:40:35;;;;;;;13.20;12.20;;;16.30;68.40;;;;;;4977563;28;20460;-49
2023/01/01 15:43:01;;;;;;;12.30;11.40;;;16.20;68.60;;;;;;4979318;28;20452;-47
2023/01/01 15:45:27;;;;;;;12.67;11.77;;;16.10;68.90;;;;;;4976965;28;20272;-51
2023/01/01 15:48:16;;;;;;;13.23;12.30;;;16.10;69.30;;;;;;4972132;28;20203;-50
2023/01/01 15:50:44;;;;;;;12.37;11.47;;;16.00;69.40;;;;;;4978303;28;20439;-48
2023/01/01 15:53:45;;;;;;;13.77;12.87;;;16.00;70.10;;;;;;4956424;28;20488;-49
2023/01/01 15:56:12;;;;;;;13.03;12.03;;;15.90;70.50;;;;;;4925178;28;21415;-48
2023/01/01 15:58:52;;;;;;;13.53;12.43;;;15.90;71.00;;;;;;4901726;28;55747;-49
2023/01/01 16:01:25;;;;;;;13.30;12.20;;;15.90;71.00;;;;;;4903524;29;20469;-48
2023/01/01 16:03:59;;;;;;;13.23;11.90;;;15.80;71.50;;;;;;4900989;29;20477;-52
2023/01/01 16:06:25;;;;;;;12.60;11.90;;;15.90;71.30;;;;;;4901302;29;20449;-47
2023/01/01 16:08:50;;;;;;;13.43;12.20;;;15.90;71.20;;;;;;4900472;29;20515;-48
2023/01/01 16:11:16;;;;;;;15.80;14.37;;;15.90;71.60;;;;;;4911462;28;20331;-51
2023/01/01 16:13:42;;;;;;;15.07;13.97;;;15.90;71.30;;;;;;4920335;29;20264;-50
2023/01/01 16:16:23;;;;;;;15.13;13.77;;;15.90;72.50;;;;;;4917782;28;20215;-47
2023/01/01 16:18:49;;;;;;;14.10;13.00;;;15.90;71.70;;;;;;4919251;29;20211;-50
2023/01/01 16:21:15;;;;;;;14.57;13.30;;;16.00;71.50;;;;;;4920324;28;21009;-54
2023/01/01 16:25:19;;;;;;;13.87;12.60;;;16.00;71.00;;;;;;5077981;27;20662;-48
2023/01/01 16:27:45;;;;;;;13.57;12.47;;;16.10;71.60;;;;;;5102516;28;20583;-50
2023/01/01 16:33:33;;;;;;;13.70;12.40;;;16.10;71.30;;;;;;5064679;28;20494;-46
2023/01/01 16:35:58;;;;;;;13.70;12.50;;;16.10;71.40;;;;;;5069045;28;20443;-50
2023/01/01 16:38:24;;;;;;;13.87;12.60;;;16.10;71.00;;;;;;5074131;28;20554;-50
2023/01/01 16:40:50;;;;;;;15.17;13.87;;;16.10;71.10;;;;;;5075158;28;20223;-48
2023/01/01 16:43:16;;;;;;;14.03;12.70;;;16.10;71.30;;;;;;5074316;28;20214;-50
2023/01/01 16:45:43;;;;;;;14.97;13.67;;;16.00;74.10;;;;;;5076467;28;20179;-47
2023/01/01 16:48:08;;;;;;;15.93;14.53;;;15.90;73.00;;;;;;5072285;28;20543;-48
2023/01/01 16:50:34;;;;;;;15.87;14.60;;;15.90;73.80;;;;;;5074401;28;20437;-49
2023/01/01 16:53:00;;;;;;;15.70;14.43;;;15.80;74.50;;;;;;5071096;28;20313;-50
2023/01/01 16:55:25;;;;;;;17.10;15.60;;;15.70;74.30;;;;;;5067377;28;20187;-50
2023/01/01 16:57:51;;;;;;;16.07;14.87;;;15.60;75.40;;;;;;5068934;28;20204;-48
2023/01/01 17:00:17;;;;;;;17.30;15.80;;;15.50;75.90;;;;;;5062175;28;20183;-51
2023/01/01 17:02:42;;;;;;;18.70;17.20;;;15.50;75.80;;;;;;5068992;28;21327;-46
2023/01/01 17:05:09;;;;;;;17.10;15.70;;;15.40;76.40;;;;;;5066594;28;20186;-48
2023/01/01 17:07:35;;;;;;;16.17;14.60;;;15.40;76.70;;;;;;5069469;28;20235;-49
2023/01/01 17:10:00;;;;;;;17.07;15.50;;;15.30;77.10;;;;;;5068399;28;21333;-51
2023/01/01 17:12:26;;;;;;;19.53;17.80;;;15.20;77.80;;;;;;5068692;28;20209;-51
2023/01/01 17:14:51;;;;;;;16.53;15.03;;;15.10;78.70;;;;;;5067324;28;20216;-51
2023/01/01 17:17:17;;;;;;;34.30;31.17;;;15.10;78.00;;;;;;5067385;28;20212;-47
2023/01/01 17:19:42;;;;;;;27.17;24.87;;;15.10;78.40;;;;;;5069238;28;20182;-47
2023/01/01 17:22:08;;;;;;;25.90;23.67;;;15.00;79.30;;;;;;5068796;28;20693;-52
2023/01/01 17:24:34;;;;;;;19.50;18.00;;;15.00;79.60;;;;;;5068906;28;20220;-50
2023/01/01 17:26:59;;;;;;;18.93;17.27;;;14.90;80.40;;;;;;5069021;28;20596;-50
2023/01/01 17:29:25;;;;;;;17.13;15.80;;;14.90;80.80;;;;;;5069489;28;20196;-48
2023/01/01 17:31:51;;;;;;;16.93;15.50;;;14.90;81.30;;;;;;5067288;28;20194;-49
2023/01/01 17:34:17;;;;;;;18.23;16.40;;;14.80;82.40;;;;;;5064928;28;20220;-51
2023/01/01 17:36:43;;;;;;;18.93;17.10;;;14.80;82.50;;;;;;5051389;28;20208;-53
2023/01/01 17:39:10;;;;;;;19.40;17.60;;;14.70;82.90;;;;;;5053330;28;20471;-49
2023/01/01 17:41:36;;;;;;;16.43;15.23;;;14.80;83.50;;;;;;5055146;28;20433;-48
2023/01/01 17:44:02;;;;;;;19.50;18.10;;;14.70;83.90;;;;;;5052797;28;20812;-46
2023/01/01 17:46:29;;;;;;;24.93;22.93;;;14.60;85.20;;;;;;5056615;28;20436;-46
2023/01/01 17:48:56;;;;;;;23.77;21.20;;;14.60;84.80;;;;;;5053726;28;21047;-49
2023/01/01 17:51:22;;;;;;;150.90;140.87;;;14.60;85.10;;;;;;5055303;28;20465;-44
2023/01/01 17:53:48;;;;;;;42.07;39.03;;;14.60;84.60;;;;;;5051949;28;20503;-44
2023/01/01 17:56:16;;;;;;;28.20;26.30;;;14.60;85.70;;;;;;5054583;28;20452;-46
2023/01/01 17:58:43;;;;;;;14.53;13.43;;;14.70;86.20;;;;;;5055352;28;20561;-49
2023/01/01 18:01:11;;;;;;;80.27;74.47;;;14.70;83.90;;;;;;5055397;28;20442;-48
2023/01/01 18:03:39;;;;;;;23.50;21.60;;;14.70;83.60;;;;;;5052268;28;21369;-50
2023/01/01 18:06:06;;;;;;;30.03;27.50;;;14.80;83.90;;;;;;5056078;28;20462;-52
2023/01/01 18:08:32;;;;;;;22.83;20.90;;;14.80;83.40;;;;;;5054711;28;20466;-52
2023/01/01 18:10:58;;;;;;;30.73;28.17;;;14.80;84.40;;;;;;5056035;28;20433;-46
2023/01/01 18:13:24;;;;;;;34.10;31.00;;;14.80;83.80;;;;;;5053121;28;21518;-49
2023/01/01 18:15:50;;;;;;;20.93;19.23;;;14.80;87.60;;;;;;5057796;28;20427;-50
2023/01/01 18:18:15;;;;;;;73.93;68.13;;;14.80;84.30;;;;;;5054628;28;20456;-52
2023/01/01 18:20:41;;;;;;;30.70;28.40;;;14.80;83.50;;;;;;5057439;28;20285;-49
2023/01/01 18:23:07;;;;;;;21.57;19.80;;;14.80;84.00;;;;;;5055131;28;20246;-50
2023/01/01 18:25:32;;;;;;;18.50;16.83;;;14.80;83.50;;;;;;5056480;28;20216;-51
2023/01/01 18:27:58;;;;;;;16.90;15.40;;;14.70;83.50;;;;;;5055573;28;20199;-48
2023/01/01 18:30:24;;;;;;;17.23;15.37;;;14.70;83.80;;;;;;5055275;28;20201;-49
2023/01/01 18:32:51;;;;;;;15.30;14.20;;;14.80;84.60;;;;;;5054708;28;20603;-48
2023/01/01 18:35:17;;;;;;;16.13;14.73;;;14.80;83.40;;;;;;5042429;28;20182;-51
2023/01/01 18:37:42;;;;;;;15.37;14.13;;;14.80;82.80;;;;;;5049982;28;20443;-52
2023/01/01 18:40:14;;;;;;;16.00;14.70;;;14.80;82.80;;;;;;5055011;28;20295;-48
2023/01/01 18:43:06;;;;;;;16.10;14.70;;;14.80;83.20;;;;;;5053321;28;20186;-47
2023/01/01 18:45:33;;;;;;;16.90;15.60;;;14.90;83.10;;;;;;5052771;28;20435;-52
2023/01/01 18:48:01;;;;;;;17.87;16.10;;;14.90;83.10;;;;;;5051441;28;20440;-49
2023/01/01 18:50:30;;;;;;;17.17;15.77;;;14.80;83.00;;;;;;5051597;28;20431;-46
2023/01/01 18:53:08;;;;;;;16.40;15.20;;;14.90;84.00;;;;;;5053633;28;20432;-48
2023/01/01 18:55:34;;;;;;;16.00;14.73;;;14.90;84.20;;;;;;5050427;28;20457;-46
2023/01/01 18:58:22;;;;;;;16.53;15.23;;;14.90;84.40;;;;;;5054744;28;20440;-46
2023/01/01 19:00:49;;;;;;;17.77;16.47;;;14.90;83.80;;;;;;5051622;28;20274;-48
2023/01/01 19:03:17;;;;;;;18.20;16.60;;;14.90;83.50;;;;;;5056327;28;20515;-47
2023/01/01 19:05:46;;;;;;;18.00;16.80;;;14.90;83.70;;;;;;5053318;28;20460;-49
2023/01/01 19:08:22;;;;;;;18.80;17.30;;;14.90;84.00;;;;;;5052973;28;20451;-51
2023/01/01 19:10:56;;;;;;;19.23;17.53;;;14.90;83.60;;;;;;5053468;28;20503;-53
2023/01/01 19:13:33;;;;;;;22.27;20.07;;;14.90;84.00;;;;;;5052202;28;20477;-52
2023/01/01 19:16:11;;;;;;;21.60;19.80;;;14.90;84.40;;;;;;5050298;28;20448;-50
2023/01/01 19:18:39;;;;;;;20.73;19.00;;;14.90;84.70;;;;;;5050834;28;20432;-50
2023/01/01 19:21:10;;;;;;;20.43;18.50;;;14.90;85.10;;;;;;5052328;28;20441;-48
2023/01/01 19:23:57;;;;;;;18.70;17.10;;;14.90;84.80;;;;;;5055116;28;20548;-47
2023/01/01 19:26:35;;;;;;;18.87;17.17;;;14.90;84.10;;;;;;5055224;28;20447;-49
2023/01/01 19:29:21;;;;;;;16.50;15.20;;;14.90;84.10;;;;;;5056703;28;20480;-50
2023/01/01 19:31:49;;;;;;;17.53;16.03;;;14.90;83.90;;;;;;5050045;28;20444;-50
2023/01/01 19:34:15;;;;;;;17.53;16.00;;;14.90;84.40;;;;;;5054667;28;21020;-50
2023/01/01 19:36:41;;;;;;;15.60;14.37;;;14.90;84.60;;;;;;5057578;28;20410;-48
2023/01/01 19:39:07;;;;;;;14.43;13.17;;;14.90;84.40;;;;;;5052377;28;20186;-50
2023/01/01 19:41:33;;;;;;;16.20;15.00;;;15.00;83.80;;;;;;5053796;28;20442;-49
2023/01/01 19:43:59;;;;;;;14.30;13.20;;;14.90;83.30;;;;;;5054558;28;20429;-51
2023/01/01 19:46:25;;;;;;;14.73;13.60;;;15.00;82.40;;;;;;5055285;28;20483;-53
2023/01/01 19:48:52;;;;;;;15.73;14.33;;;15.00;82.70;;;;;;5056421;28;20191;-51
2023/01/01 19:51:18;;;;;;;14.30;13.20;;;14.90;82.80;;;;;;5054857;28;20187;-48
2023/01/01 19:53:44;;;;;;;15.43;14.30;;;14.90;82.90;;;;;;5055096;28;20561;-47
2023/01/01 19:56:09;;;;;;;20.77;18.80;;;15.00;83.20;;;;;;5055258;28;20454;-47
2023/01/01 19:58:35;;;;;;;20.87;19.07;;;15.00;84.90;;;;;;5055703;28;20181;-50
2023/01/01 20:01:01;;;;;;;23.97;21.97;;;14.90;85.30;;;;;;5050598;28;21265;-51
2023/01/01 20:03:27;;;;;;;19.13;17.50;;;14.80;85.20;;;;;;5055109;28;20192;-49
2023/01/01 20:05:53;;;;;;;20.67;18.77;;;14.80;85.50;;;;;;5054338;28;20452;-51
2023/01/01 20:08:20;;;;;;;20.93;19.23;;;14.80;86.80;;;;;;5052292;28;20454;-51
2023/01/01 20:10:46;;;;;;;22.67;20.70;;;14.70;86.50;;;;;;5053014;28;20198;-51
2023/01/01 20:13:11;;;;;;;22.63;20.53;;;14.70;86.50;;;;;;5055348;28;20459;-47
2023/01/01 20:15:37;;;;;;;21.30;19.43;;;14.80;86.30;;;;;;5054939;28;20178;-49
2023/01/01 20:18:02;;;;;;;21.40;19.50;;;14.70;87.60;;;;;;5055005;28;20647;-49
2023/01/01 20:20:28;;;;;;;20.10;18.30;;;14.60;87.50;;;;;;5053252;28;20611;-50
2023/01/01 20:22:54;;;;;;;19.87;18.20;;;14.50;88.40;;;;;;5053139;28;20665;-48
2023/01/01 20:25:20;;;;;;;19.20;17.60;;;14.50;87.80;;;;;;5051429;28;21064;-49
2023/01/01 20:30:30;;;;;;;17.93;16.33;;;14.50;89.20;;;;;;5052904;28;20696;-49
2023/01/01 20:32:55;;;;;;;18.17;16.80;;;14.40;88.50;;;;;;5051847;28;20428;-48
2023/01/01 20:37:35;;;;;;;18.67;16.97;;;14.40;88.30;;;;;;5052645;28;20181;-52
2023/01/01 20:38:07;;;;;;;18.50;16.80;;;14.40;88.80;;;;;;5054922;28;20227;-52
2023/01/01 20:40:32;;;;;;;17.30;16.00;;;14.40;88.40;;;;;;5055899;28;20498;-51
2023/01/01 20:42:58;;;;;;;17.63;16.17;;;14.40;89.10;;;;;;5051641;28;20548;-48
2023/01/01 20:45:24;;;;;;;17.43;15.80;;;14.40;89.70;;;;;;5054530;28;20639;-48
2023/01/01 20:47:49;;;;;;;16.03;14.80;;;14.40;90.00;;;;;;5046480;28;20181;-50
2023/01/01 20:50:15;;;;;;;15.07;14.07;;;14.40;90.00;;;;;;5053658;28;20694;-48
2023/01/01 20:52:40;;;;;;;14.50;13.20;;;14.40;90.00;;;;;;5053013;28;20671;-49
2023/01/01 20:55:06;;;;;;;15.03;13.93;;;14.50;90.00;;;;;;5050785;28;20604;-53
2023/01/01 20:57:32;;;;;;;14.17;13.27;;;14.40;90.10;;;;;;5049936;28;20206;-49
2023/01/01 20:59:58;;;;;;;15.23;14.00;;;14.50;90.30;;;;;;5050578;28;20478;-48
2023/01/01 21:02:23;;;;;;;14.40;13.20;;;14.40;90.20;;;;;;5053145;28;20190;-51
2023/01/01 21:04:49;;;;;;;14.40;13.30;;;14.40;90.30;;;;;;5053123;28;20525;-48
2023/01/01 21:07:14;;;;;;;15.03;13.90;;;14.50;90.30;;;;;;5055968;28;20303;-48
2023/01/01 21:09:40;;;;;;;15.00;13.90;;;14.50;90.40;;;;;;5051104;28;20209;-47
2023/01/01 21:12:07;;;;;;;16.03;14.63;;;14.50;90.50;;;;;;5057323;28;20639;-49
2023/01/01 21:14:32;;;;;;;14.83;13.60;;;14.50;90.90;;;;;;5054045;28;20471;-48
2023/01/01 21:16:59;;;;;;;15.40;14.17;;;14.50;90.90;;;;;;5054148;28;20899;-47
2023/01/01 21:19:24;;;;;;;15.90;14.60;;;14.50;91.00;;;;;;5052871;28;22317;-46
2023/01/01 21:21:52;;;;;;;14.43;13.43;;;14.50;91.00;;;;;;5056564;28;20424;-49
2023/01/01 21:24:33;;;;;;;14.83;13.53;;;14.50;91.30;;;;;;5056017;28;20222;-49
2023/01/01 21:27:15;;;;;;;14.73;13.57;;;14.50;91.20;;;;;;5059918;28;20447;-49
2023/01/01 21:29:46;;;;;;;13.83;12.93;;;14.60;91.20;;;;;;5062627;28;20420;-50
2023/01/01 21:32:25;;;;;;;14.03;13.07;;;14.60;91.10;;;;;;5058205;28;20432;-50
2023/01/01 21:34:53;;;;;;;15.27;14.10;;;14.60;90.70;;;;;;5053877;28;20497;-48
2023/01/01 21:37:46;;;;;;;15.23;13.77;;;14.70;91.00;;;;;;5058447;28;20426;-46
2023/01/01 21:40:39;;;;;;;14.93;13.83;;;14.70;90.90;;;;;;5059171;28;20429;-50
2023/01/01 21:43:08;;;;;;;15.40;13.93;;;14.60;91.20;;;;;;5059022;28;20431;-47
2023/01/01 21:45:42;;;;;;;14.57;13.47;;;14.70;91.10;;;;;;5060866;28;20607;-47
2023/01/01 21:48:16;;;;;;;14.90;13.60;;;14.70;91.10;;;;;;5060407;28;20434;-48
2023/01/01 21:50:44;;;;;;;14.43;13.23;;;14.70;90.90;;;;;;5061353;28;21092;-48
2023/01/01 21:53:25;;;;;;;16.33;14.57;;;14.60;90.90;;;;;;5058603;28;21284;-52
2023/01/01 21:55:53;;;;;;;15.00;13.80;;;14.60;91.00;;;;;;5060114;28;20438;-52
2023/01/01 22:01:38;;;;;;;15.57;14.07;;;14.60;90.70;;;;;;5060401;28;20570;-47
2023/01/01 22:04:10;;;;;;;15.13;13.93;;;14.60;90.70;;;;;;5061430;28;20435;-49
2023/01/01 22:06:43;;;;;;;14.53;13.37;;;14.60;90.80;;;;;;5061502;28;20422;-50
2023/01/01 22:09:22;;;;;;;14.90;13.60;;;14.60;90.90;;;;;;5060533;28;20439;-47
2023/01/01 22:11:48;;;;;;;15.60;14.17;;;14.60;91.00;;;;;;5059875;28;20466;-48
2023/01/01 22:14:21;;;;;;;15.30;14.00;;;14.60;91.00;;;;;;5060850;28;20550;-48
2023/01/01 22:16:52;;;;;;;15.03;13.90;;;14.70;90.80;;;;;;5057941;28;20429;-49
2023/01/01 22:19:21;;;;;;;13.50;12.40;;;14.70;90.70;;;;;;5060692;28;20436;-47
2023/01/01 22:21:49;;;;;;;15.27;13.77;;;14.70;90.80;;;;;;5057610;28;20431;-46
2023/01/01 22:24:31;;;;;;;15.27;13.87;;;14.70;90.60;;;;;;5058856;28;20481;-47
2023/01/01 22:27:21;;;;;;;16.07;14.63;;;14.70;90.60;;;;;;5059601;28;20438;-47
2023/01/01 22:29:47;;;;;;;15.83;14.77;;;14.70;90.40;;;;;;5055451;28;20889;-48
2023/01/01 22:32:18;;;;;;;16.30;14.90;;;14.70;90.50;;;;;;5057989;28;20435;-49
2023/01/01 22:34:43;;;;;;;15.00;13.83;;;14.70;90.40;;;;;;5060462;28;21032;-47
2023/01/01 22:37:20;;;;;;;14.50;13.50;;;14.80;90.60;;;;;;5057893;28;20573;-45
2023/01/01 22:39:47;;;;;;;15.77;14.67;;;14.70;90.70;;;;;;5060062;28;20205;-44
2023/01/01 22:42:17;;;;;;;16.17;14.93;;;14.80;90.80;;;;;;5057243;28;20439;-43
2023/01/01 22:44:46;;;;;;;16.50;15.20;;;14.70;90.70;;;;;;5058604;28;20465;-47
2023/01/01 22:47:15;;;;;;;15.60;14.50;;;14.70;91.30;;;;;;5059817;28;20435;-43
2023/01/01 22:49:50;;;;;;;16.03;14.53;;;14.70;90.90;;;;;;5059593;28;20432;-45
2023/01/01 22:52:15;;;;;;;16.47;15.17;;;14.70;91.00;;;;;;5054314;28;20627;-44
2023/01/01 22:54:41;;;;;;;16.70;15.40;;;14.70;91.00;;;;;;5056938;28;20456;-43
2023/01/01 22:57:07;;;;;;;16.07;14.97;;;14.70;91.10;;;;;;5057983;28;20220;-46
2023/01/01 22:59:32;;;;;;;16.47;15.17;;;14.70;90.90;;;;;;5059154;28;20512;-43
2023/01/01 23:01:59;;;;;;;15.87;14.47;;;14.80;90.90;;;;;;5053177;28;20189;-44
2023/01/01 23:04:25;;;;;;;15.80;14.67;;;14.80;91.00;;;;;;5057102;28;20175;-43
2023/01/01 23:06:51;;;;;;;15.60;14.30;;;14.80;90.80;;;;;;5057805;28;20799;-44
2023/01/01 23:09:17;;;;;;;16.67;15.03;;;14.80;90.80;;;;;;5059713;28;20513;-44
2023/01/01 23:11:42;;;;;;;16.80;15.40;;;14.90;90.70;;;;;;5058158;28;21251;-43
2023/01/01 23:16:52;;;;;;;17.13;15.80;;;14.90;90.50;;;;;;5060969;28;20184;-44
2023/01/01 23:19:18;;;;;;;17.00;15.50;;;15.00;90.60;;;;;;5060201;28;20429;-43
2023/01/01 23:21:44;;;;;;;17.67;16.37;;;14.90;90.90;;;;;;5058474;28;20217;-46
2023/01/01 23:24:15;;;;;;;18.67;17.13;;;14.90;90.90;;;;;;5057488;28;20228;-45
2023/01/01 23:26:41;;;;;;;17.13;15.83;;;14.90;91.00;;;;;;5059479;28;20439;-44
2023/01/01 23:29:09;;;;;;;18.27;16.63;;;14.90;91.10;;;;;;5057638;28;20530;-43
2023/01/01 23:31:36;;;;;;;18.97;17.40;;;14.90;91.20;;;;;;5053870;28;20494;-43
2023/01/01 23:34:03;;;;;;;17.77;16.37;;;14.90;91.50;;;;;;5059434;28;20468;-49
2023/01/01 23:36:29;;;;;;;17.93;16.40;;;14.80;91.40;;;;;;5057531;28;20538;-45
2023/01/01 23:38:54;;;;;;;18.57;17.10;;;14.80;91.50;;;;;;5060594;28;20513;-44
2023/01/01 23:41:21;;;;;;;17.50;16.00;;;14.80;91.30;;;;;;5056986;28;20505;-43
2023/01/01 23:43:47;;;;;;;17.00;15.80;;;14.80;91.30;;;;;;5059429;28;20651;-46
2023/01/01 23:46:13;;;;;;;17.40;16.00;;;14.80;91.30;;;;;;5060884;28;20472;-46
2023/01/01 23:48:42;;;;;;;16.83;15.33;;;14.80;91.40;;;;;;5060679;28;20191;-43
2023/01/01 23:51:08;;;;;;;18.00;16.50;;;14.90;91.20;;;;;;5054617;28;20427;-46
2023/01/01 23:53:33;;;;;;;17.60;16.20;;;14.80;91.20;;;;;;5059532;28;20459;-45
2023/01/01 23:55:59;;;;;;;17.93;16.53;;;14.80;91.40;;;;;;5058219;28;20443;-43
2023/01/01 23:58:25;;;;;;;17.30;15.90;;;14.80;91.30;;;;;;5059894;28;20185;-44
